Time;durP1;ratioP1;P1;durP2;ratioP2;P2;SDS_P1;SDS_P2;PMS_P1;PMS_P2;Temp;Humidity;BMP_temperature;BMP_pressure;BME280_temperature;BME280_humidity;BME280_pressure;Samples;Min_cycle;Max_cycle;Signal;HPM_P1;HPM_P2
2021/07/16 00:01:30;;;;;;;5.90;3.07;;;;;;;19.79;65.41;97916.13;8353870;28;20250;-70
2021/07/16 00:05:33;;;;;;;2.90;2.70;;;;;;;19.79;65.47;97914.34;8353781;28;20227;-70
2021/07/16 00:09:36;;;;;;;4.80;3.33;;;;;;;19.65;66.00;97909.38;8353828;28;20386;-70
2021/07/16 00:13:39;;;;;;;4.30;3.07;;;;;;;19.65;65.95;97909.38;8353485;28;20223;-70
2021/07/16 00:17:43;;;;;;;3.77;2.90;;;;;;;19.62;66.15;97913.06;8353670;28;20209;-70
2021/07/16 00:21:46;;;;;;;3.47;2.90;;;;;;;19.63;66.14;97914.75;8353522;28;20485;-70
2021/07/16 00:25:49;;;;;;;4.97;3.60;;;;;;;19.65;66.27;97919.88;8353187;28;20202;-70
2021/07/16 00:29:51;;;;;;;4.17;3.30;;;;;;;19.58;66.23;97919.53;8353216;28;20257;-70
2021/07/16 00:33:55;;;;;;;5.23;3.17;;;;;;;19.62;66.15;97922.75;8353164;28;20371;-70
2021/07/16 00:37:58;;;;;;;7.07;3.10;;;;;;;19.57;66.80;97912.59;8352974;28;20243;-70
2021/07/16 00:42:01;;;;;;;5.67;3.80;;;;;;;19.46;66.63;97912.69;8352590;28;20338;-70
2021/07/16 00:46:04;;;;;;;4.93;3.60;;;;;;;19.44;66.62;97920.69;8352750;28;20202;-69
2021/07/16 00:50:11;;;;;;;6.70;3.47;;;;;;;19.42;66.43;97924.38;8352684;28;20260;-70
2021/07/16 00:54:13;;;;;;;4.43;3.20;;;;;;;19.33;66.53;97925.97;8353113;28;20491;-70
2021/07/16 00:58:17;;;;;;;4.00;2.40;;;;;;;19.24;66.39;97935.41;8352600;28;20209;-70
2021/07/16 01:02:19;;;;;;;2.73;2.17;;;;;;;19.26;66.37;97927.41;8352596;28;20257;-69
2021/07/16 01:06:24;;;;;;;6.50;2.20;;;;;;;19.33;65.76;97929.41;8351455;28;20220;-70
2021/07/16 01:10:27;;;;;;;5.33;1.90;;;;;;;19.22;65.93;97916.31;8352110;28;20222;-70
2021/07/16 01:14:30;;;;;;;6.33;2.23;;;;;;;19.23;65.49;97920.63;8351757;28;20211;-69
2021/07/16 01:18:32;;;;;;;5.17;1.87;;;;;;;19.24;65.54;97918.81;8351750;28;20207;-70
2021/07/16 01:22:38;;;;;;;3.53;2.40;;;;;;;19.16;65.08;97908.94;8351651;28;20232;-70
2021/07/16 01:26:43;;;;;;;4.97;2.67;;;;;;;19.20;65.02;97904.28;8351729;28;20292;-70
2021/07/16 01:30:47;;;;;;;3.33;2.47;;;;;;;19.13;64.78;97903.94;8351448;28;20400;-70
2021/07/16 01:34:50;;;;;;;3.80;2.30;;;;;;;19.01;64.61;97905.75;8351271;28;20536;-70
2021/07/16 01:38:53;;;;;;;2.50;2.30;;;;;;;18.94;64.45;97896.69;8351595;28;20208;-70
2021/07/16 01:42:58;;;;;;;4.20;2.53;;;;;;;19.03;64.21;97893.34;8351545;28;20523;-70
2021/07/16 01:47:01;;;;;;;4.20;2.40;;;;;;;18.89;64.46;97894.44;8351018;28;20390;-70
2021/07/16 01:51:04;;;;;;;2.60;2.40;;;;;;;19.05;63.79;97885.34;8350991;28;20207;-70
2021/07/16 01:55:09;;;;;;;4.77;2.50;;;;;;;18.89;64.39;97897.06;8350824;28;20205;-69
2021/07/16 01:59:13;;;;;;;3.97;2.30;;;;;;;18.78;64.24;97894.44;8350990;28;20205;-70
2021/07/16 02:03:18;;;;;;;4.30;2.47;;;;;;;18.80;64.51;97892.53;8350239;28;20246;-70
2021/07/16 02:07:21;;;;;;;4.93;2.00;;;;;;;18.75;64.42;97908.63;8350093;28;20220;-70
2021/07/16 02:11:24;;;;;;;3.47;1.90;;;;;;;18.79;63.93;97897.88;8350123;28;20204;-70
2021/07/16 02:15:30;;;;;;;6.43;2.27;;;;;;;18.67;64.26;97894.44;8348908;28;20204;-69
2021/07/16 02:19:35;;;;;;;3.87;2.30;;;;;;;18.70;63.80;97905.53;8349666;28;20217;-70
2021/07/16 02:23:38;;;;;;;3.47;3.10;;;;;;;18.55;64.32;97915.41;8349508;28;20224;-70
2021/07/16 02:27:41;;;;;;;4.67;2.87;;;;;;;18.51;64.19;97913.16;8349607;28;20205;-70
2021/07/16 02:31:49;;;;;;;3.20;2.90;;;;;;;18.53;64.10;97917.34;8349502;28;20211;-70
2021/07/16 02:35:52;;;;;;;4.10;2.83;;;;;;;18.52;64.09;97928.78;8349280;28;20532;-69
2021/07/16 02:39:54;;;;;;;3.43;3.07;;;;;;;18.49;64.24;97936.06;8349286;28;20212;-70
2021/07/16 02:43:57;;;;;;;3.40;3.10;;;;;;;18.46;64.01;97937.09;8348804;28;20224;-70
2021/07/16 02:48:02;;;;;;;5.60;3.90;;;;;;;18.35;64.45;97937.09;8348907;28;20200;-70
2021/07/16 02:52:05;;;;;;;4.10;3.80;;;;;;;18.47;64.21;97944.03;8348745;28;20399;-69
2021/07/16 02:56:08;;;;;;;4.33;3.97;;;;;;;18.29;64.23;97945.44;8348471;28;20208;-70
2021/07/16 03:00:12;;;;;;;5.80;4.07;;;;;;;18.24;64.54;97947.56;8348257;28;20200;-70
2021/07/16 03:04:16;;;;;;;4.13;3.83;;;;;;;18.31;64.24;97952.22;8348024;28;20224;-69
2021/07/16 03:08:19;;;;;;;6.60;4.30;;;;;;;18.27;64.46;97965.69;8347981;28;20331;-70
2021/07/16 03:12:22;;;;;;;7.77;4.10;;;;;;;18.27;64.49;97963.06;8347954;28;20207;-70
2021/07/16 03:16:24;;;;;;;8.53;4.90;;;;;;;18.29;64.60;97972.47;8347994;28;20208;-70
2021/07/16 03:20:30;;;;;;;10.50;5.20;;;;;;;18.25;65.09;97978.06;8347867;28;20207;-70
2021/07/16 03:24:33;;;;;;;4.50;4.10;;;;;;;18.24;65.22;97984.25;8347949;28;20387;-70
2021/07/16 03:28:38;;;;;;;5.37;4.47;;;;;;;18.19;65.20;97989.03;8347255;28;20208;-70
2021/07/16 03:32:41;;;;;;;7.27;4.20;;;;;;;18.24;65.30;97992.13;8347584;28;20200;-70
2021/07/16 03:36:45;;;;;;;10.60;4.40;;;;;;;18.19;65.25;97994.28;8347378;28;20236;-70
2021/07/16 03:40:54;;;;;;;8.27;4.03;;;;;;;18.08;65.46;97990.66;8347591;28;20450;-70
2021/07/16 03:44:57;;;;;;;14.37;4.60;;;;;;;18.09;65.56;97994.13;8347752;28;20228;-70
2021/07/16 03:49:00;;;;;;;5.30;4.20;;;;;;;18.14;65.79;98000.69;8347760;28;20200;-70
2021/07/16 03:53:05;;;;;;;5.20;4.03;;;;;;;18.20;65.87;97995.94;8347646;28;20204;-69
2021/07/16 03:57:08;;;;;;;18.33;5.00;;;;;;;18.20;66.64;97998.53;8347363;28;20369;-70
2021/07/16 04:01:10;;;;;;;7.97;4.80;;;;;;;18.23;66.58;98000.94;8347634;28;20200;-69
2021/07/16 04:05:14;;;;;;;5.73;4.37;;;;;;;18.28;66.29;98004.06;8347276;28;20247;-69
2021/07/16 04:09:26;;;;;;;9.50;4.87;;;;;;;18.29;66.50;98001.31;8347707;28;20200;-70
2021/07/16 04:13:29;;;;;;;4.37;4.03;;;;;;;18.22;66.83;98004.50;8347134;28;20216;-69
2021/07/16 04:17:32;;;;;;;8.87;4.50;;;;;;;18.37;66.56;97998.09;8347100;28;20212;-70
2021/07/16 04:21:35;;;;;;;5.97;4.27;;;;;;;18.51;66.29;98012.81;8346952;28;20208;-69
2021/07/16 04:25:39;;;;;;;4.97;4.30;;;;;;;18.63;66.00;98003.16;8347058;28;20232;-69
2021/07/16 04:29:43;;;;;;;5.30;4.70;;;;;;;18.70;66.28;98017.50;8346667;28;20200;-69
2021/07/16 04:33:45;;;;;;;5.87;5.37;;;;;;;18.51;67.50;98010.19;8346617;28;20213;-69
2021/07/16 04:37:48;;;;;;;9.27;4.60;;;;;;;18.64;66.79;98008.31;8346318;28;20232;-69
2021/07/16 04:41:53;;;;;;;4.77;4.33;;;;;;;18.72;67.19;98015.59;8352795;28;20291;-69
2021/07/16 04:45:56;;;;;;;5.70;5.20;;;;;;;18.61;67.48;98013.78;8352622;28;20311;-70
2021/07/16 04:49:59;;;;;;;7.10;5.40;;;;;;;18.68;67.71;98014.16;8352243;28;20271;-69
2021/07/16 04:54:04;;;;;;;5.33;4.77;;;;;;;18.87;67.50;98019.66;8380183;28;20199;-70
2021/07/16 04:58:08;;;;;;;5.90;4.80;;;;;;;19.09;66.48;98016.19;8384921;28;20200;-69
2021/07/16 05:02:11;;;;;;;7.10;5.47;;;;;;;19.17;66.86;98023.47;8384759;28;20390;-70
2021/07/16 05:06:14;;;;;;;5.40;4.90;;;;;;;19.13;67.31;98036.03;8384501;28;20235;-69
2021/07/16 05:10:17;;;;;;;6.67;4.80;;;;;;;19.03;67.75;98035.06;8383854;28;20192;-69
2021/07/16 05:14:22;;;;;;;9.30;5.57;;;;;;;19.22;66.85;98033.63;8397032;28;20394;-69
2021/07/16 05:18:24;;;;;;;7.47;5.13;;;;;;;18.92;67.53;98040.28;8400951;28;20479;-70
2021/07/16 05:22:27;;;;;;;6.07;5.13;;;;;;;19.03;67.68;98040.28;8417516;28;20204;-69
2021/07/16 05:26:30;;;;;;;7.63;5.03;;;;;;;19.17;67.19;98039.22;8417137;28;20226;-69
2021/07/16 05:30:34;;;;;;;5.37;4.87;;;;;;;19.26;66.95;98045.53;8414484;28;20199;-69
2021/07/16 05:34:37;;;;;;;5.87;4.70;;;;;;;19.34;67.04;98054.50;8391820;28;20219;-69
2021/07/16 05:38:40;;;;;;;4.47;3.67;;;;;;;19.30;67.50;98060.09;8390361;28;20494;-69
2021/07/16 05:42:43;;;;;;;6.20;5.23;;;;;;;19.28;67.20;98068.09;8384820;28;20200;-68
2021/07/16 05:46:47;;;;;;;4.97;4.33;;;;;;;19.36;67.55;98064.03;8384494;28;20227;-69
2021/07/16 05:50:50;;;;;;;5.50;5.00;;;;;;;19.38;67.04;98068.22;8384219;28;20355;-68
2021/07/16 05:54:52;;;;;;;5.80;4.23;;;;;;;19.35;66.96;98073.72;8384157;28;20231;-68
2021/07/16 05:58:55;;;;;;;7.80;3.80;;;;;;;19.47;66.45;98075.34;8384187;28;20204;-68
2021/07/16 06:02:59;;;;;;;4.10;3.70;;;;;;;19.69;66.20;98074.50;8384206;28;20206;-69
2021/07/16 06:07:03;;;;;;;5.40;4.47;;;;;;;19.84;65.96;98071.63;8383672;28;20231;-69
2021/07/16 06:11:05;;;;;;;6.53;4.33;;;;;;;19.83;66.31;98070.78;8383950;28;20201;-69
2021/07/16 06:15:09;;;;;;;4.57;4.17;;;;;;;19.91;66.04;98071.00;8384288;28;20211;-69
2021/07/16 06:19:13;;;;;;;5.07;4.57;;;;;;;19.93;66.61;98073.50;8384002;28;20210;-69
2021/07/16 06:23:16;;;;;;;3.87;3.50;;;;;;;20.07;65.63;98070.59;8383597;28;20200;-69
2021/07/16 06:27:19;;;;;;;4.77;4.27;;;;;;;20.52;64.66;98072.16;8383484;28;20554;-68
2021/07/16 06:31:22;;;;;;;4.00;3.70;;;;;;;20.76;64.16;98081.66;8383275;28;20495;-69
2021/07/16 06:35:26;;;;;;;4.40;3.80;;;;;;;20.77;64.19;98078.03;8383205;28;20242;-69
2021/07/16 06:39:29;;;;;;;5.13;4.10;;;;;;;20.75;64.18;98086.06;8383436;28;20385;-69
2021/07/16 06:43:32;;;;;;;7.60;4.57;;;;;;;20.60;64.61;98096.09;8382995;28;20199;-69
2021/07/16 06:47:35;;;;;;;4.83;4.23;;;;;;;20.76;64.45;98093.00;8382255;28;20238;-69
2021/07/16 06:51:39;;;;;;;5.20;4.73;;;;;;;20.85;64.32;98096.66;8382436;28;20201;-69
2021/07/16 06:55:42;;;;;;;6.10;4.63;;;;;;;21.00;63.30;98107.66;8382340;28;20204;-69
2021/07/16 06:59:45;;;;;;;5.67;4.20;;;;;;;21.25;63.74;98101.97;8382082;28;20267;-69
2021/07/16 07:03:48;;;;;;;6.07;3.37;;;;;;;21.57;62.31;98101.03;8381572;28;20503;-69
2021/07/16 07:07:53;;;;;;;5.00;4.50;;;;;;;21.64;62.69;98104.78;8382015;28;20243;-69
2021/07/16 07:11:56;;;;;;;5.03;4.50;;;;;;;21.67;61.59;98109.78;8382012;28;20222;-69
2021/07/16 07:15:59;;;;;;;4.23;3.83;;;;;;;22.10;61.72;98104.31;8381639;28;20210;-69
2021/07/16 07:20:02;;;;;;;4.83;3.40;;;;;;;22.40;60.60;98108.66;8381682;28;20200;-69
2021/07/16 07:24:06;;;;;;;4.63;3.53;;;;;;;22.56;59.01;98098.38;8381754;28;20230;-69
2021/07/16 07:28:09;;;;;;;5.40;3.10;;;;;;;22.87;58.86;98108.75;8381894;28;20203;-68
2021/07/16 07:32:12;;;;;;;2.57;2.37;;;;;;;23.07;57.39;98109.53;8381554;28;20223;-69
2021/07/16 07:36:15;;;;;;;4.13;3.57;;;;;;;22.98;59.24;98111.22;8380927;28;20232;-68
2021/07/16 07:40:19;;;;;;;3.77;3.47;;;;;;;23.42;57.05;98108.88;8381564;28;20222;-68
2021/07/16 07:44:22;;;;;;;3.67;3.30;;;;;;;23.73;56.29;98113.84;8381721;28;20521;-69
2021/07/16 07:48:25;;;;;;;3.87;3.20;;;;;;;23.96;55.14;98119.59;8381677;28;20202;-69
2021/07/16 07:52:28;;;;;;;3.43;3.13;;;;;;;24.25;54.67;98101.84;8381197;28;20527;-69
2021/07/16 07:56:33;;;;;;;3.30;3.00;;;;;;;24.68;54.85;98095.78;8380850;28;20207;-69
2021/07/16 08:00:36;;;;;;;3.33;3.03;;;;;;;25.07;53.78;98103.31;8381051;28;20203;-69
2021/07/16 08:04:41;;;;;;;3.50;2.53;;;;;;;25.24;52.20;98112.22;8379871;28;20224;-70
2021/07/16 08:08:43;;;;;;;2.83;2.47;;;;;;;25.09;50.65;98104.03;8380744;28;20549;-71
2021/07/16 08:12:48;;;;;;;2.60;2.40;;;;;;;25.57;50.10;98104.44;8382382;28;20211;-72
2021/07/16 08:16:50;;;;;;;2.33;2.13;;;;;;;25.25;49.50;98113.91;8387346;28;20503;-71
2021/07/16 08:20:54;;;;;;;3.37;2.40;;;;;;;24.87;51.82;98115.97;8387242;28;20200;-71
2021/07/16 08:24:56;;;;;;;7.13;2.40;;;;;;;25.04;51.09;98122.19;8387865;28;20502;-71
2021/07/16 08:29:00;;;;;;;3.10;2.20;;;;;;;24.47;52.88;98125.22;8386874;28;20271;-73
2021/07/16 08:33:03;;;;;;;2.30;2.10;;;;;;;23.97;54.24;98125.69;8386749;28;20381;-72
2021/07/16 08:37:06;;;;;;;2.17;1.87;;;;;;;23.69;53.71;98127.53;8386174;28;20234;-71
2021/07/16 08:41:09;;;;;;;1.97;1.60;;;;;;;23.57;54.08;98129.50;8386345;28;20200;-70
2021/07/16 08:45:14;;;;;;;11.27;2.10;;;;;;;24.31;52.50;98128.56;8386623;28;20231;-71
2021/07/16 08:49:17;;;;;;;1.77;1.40;;;;;;;24.69;51.14;98134.50;8386717;28;20206;-71
2021/07/16 08:53:21;;;;;;;2.53;1.10;;;;;;;24.55;50.51;98137.72;8386165;28;20214;-71
2021/07/16 08:57:26;;;;;;;1.70;1.20;;;;;;;24.69;49.98;98146.94;8385696;28;20213;-70
2021/07/16 09:01:30;;;;;;;1.43;1.33;;;;;;;25.53;48.30;98132.25;8385801;28;20409;-70
2021/07/16 09:05:35;;;;;;;2.43;1.90;;;;;;;25.44;48.99;98136.69;8385418;28;20236;-70
2021/07/16 09:09:39;;;;;;;2.83;1.73;;;;;;;25.81;48.47;98143.47;8385506;28;20514;-70
2021/07/16 09:13:42;;;;;;;2.93;1.40;;;;;;;26.81;44.19;98150.66;8385623;28;20282;-70
2021/07/16 09:17:46;;;;;;;3.00;1.50;;;;;;;26.94;43.48;98145.66;8385469;28;20247;-70
2021/07/16 09:21:59;;;;;;;1.80;1.50;;;;;;;26.18;43.31;98146.75;8385509;28;20202;-70
2021/07/16 09:26:08;;;;;;;2.57;1.00;;;;;;;26.30;43.02;98142.78;8384685;28;20374;-72
2021/07/16 09:30:21;;;;;;;1.10;1.03;;;;;;;26.44;43.57;98150.09;8385562;28;20201;-72
2021/07/16 09:34:25;;;;;;;1.63;1.30;;;;;;;26.66;42.21;98147.84;8385474;28;20207;-71
2021/07/16 09:38:29;;;;;;;3.10;1.10;;;;;;;27.06;42.93;98140.81;8385116;28;20205;-72
2021/07/16 09:42:37;;;;;;;3.47;1.40;;;;;;;27.35;42.00;98140.28;8385123;28;20210;-70
2021/07/16 09:46:40;;;;;;;1.20;0.90;;;;;;;27.58;41.11;98135.03;8384840;28;20228;-71
2021/07/16 09:50:44;;;;;;;1.10;1.00;;;;;;;27.69;39.13;98137.34;8384920;28;20502;-72
2021/07/16 09:55:09;;;;;;;1.87;1.10;;;;;;;27.93;41.45;98140.06;8384565;28;20207;-70
2021/07/16 09:59:13;;;;;;;1.30;0.90;;;;;;;27.40;37.98;98137.13;8384161;28;20210;-70
2021/07/16 10:03:16;;;;;;;9.20;1.27;;;;;;;27.93;40.18;98130.28;8384404;28;20204;-69
2021/07/16 10:07:21;;;;;;;1.47;1.00;;;;;;;28.31;39.08;98138.38;8384371;28;20265;-70
2021/07/16 10:11:25;;;;;;;1.37;1.00;;;;;;;28.20;38.85;98128.94;8384170;28;20209;-70
2021/07/16 10:15:28;;;;;;;2.80;0.90;;;;;;;28.68;39.45;98130.63;8383763;28;20206;-71
2021/07/16 10:19:31;;;;;;;1.53;0.90;;;;;;;28.76;38.50;98133.22;8383800;28;20201;-70
2021/07/16 10:23:35;;;;;;;4.40;0.80;;;;;;;28.70;37.33;98124.09;8383640;28;20207;-69
2021/07/16 10:27:40;;;;;;;1.33;0.80;;;;;;;28.92;36.85;98129.56;8383576;28;20231;-70
2021/07/16 10:31:43;;;;;;;0.90;0.70;;;;;;;28.77;35.91;98130.38;8383379;28;20202;-71
2021/07/16 10:35:46;;;;;;;6.03;0.70;;;;;;;29.26;37.63;98123.75;8382134;28;20333;-72
2021/07/16 10:39:52;;;;;;;8.23;0.87;;;;;;;29.30;36.11;98124.19;8383322;28;20209;-71
2021/07/16 10:43:55;;;;;;;0.83;0.60;;;;;;;29.39;34.34;98117.75;8383229;28;20206;-71
2021/07/16 10:48:14;;;;;;;0.70;0.60;;;;;;;29.52;34.36;98125.94;8382668;28;20233;-71
2021/07/16 10:52:17;;;;;;;0.40;0.40;;;;;;;29.70;33.81;98122.91;8382916;28;20266;-73
2021/07/16 10:56:23;;;;;;;0.50;0.50;;;;;;;29.91;34.24;98118.63;8382349;28;20214;-73
2021/07/16 11:00:48;;;;;;;0.53;0.50;;;;;;;29.79;34.05;98118.31;8382259;28;20199;-71
2021/07/16 11:04:51;;;;;;;1.23;0.60;;;;;;;29.46;33.33;98120.53;8377180;28;20206;-70
2021/07/16 11:08:58;;;;;;;0.50;0.50;;;;;;;29.68;32.84;98122.25;8366525;28;20398;-69
2021/07/16 11:13:33;;;;;;;0.60;0.60;;;;;;;29.99;34.22;98126.56;8364692;28;20212;-71
2021/07/16 11:17:39;;;;;;;2.00;0.90;;;;;;;30.28;35.13;98127.47;8356785;28;20211;-70
2021/07/16 11:22:12;;;;;;;0.60;0.60;;;;;;;29.81;36.06;98122.44;8358053;28;20195;-72
2021/07/16 11:26:16;;;;;;;2.10;0.70;;;;;;;30.10;32.60;98118.06;8268536;28;20421;-72
2021/07/16 11:30:20;;;;;;;2.83;0.60;;;;;;;30.29;34.73;98116.59;8380646;28;20199;-71
2021/07/16 11:34:23;;;;;;;1.40;0.60;;;;;;;30.46;33.95;98121.69;8380479;28;20482;-72
2021/07/16 11:38:26;;;;;;;0.60;0.60;;;;;;;30.21;32.28;98114.88;8378831;28;20201;-70
2021/07/16 11:42:30;;;;;;;1.00;0.60;;;;;;;30.54;33.08;98114.38;8377817;28;20240;-70
2021/07/16 11:46:34;;;;;;;0.77;0.50;;;;;;;30.50;31.59;98102.44;8378691;28;20231;-72
2021/07/16 11:50:38;;;;;;;0.77;0.70;;;;;;;30.52;31.55;98094.22;8381095;28;20199;-71
2021/07/16 11:54:41;;;;;;;0.90;0.70;;;;;;;30.56;32.54;98093.66;8380645;28;20215;-72
2021/07/16 11:58:48;;;;;;;0.60;0.60;;;;;;;30.70;32.03;98093.75;8380552;28;20412;-72
2021/07/16 12:03:00;;;;;;;1.03;0.60;;;;;;;30.85;32.48;98094.47;8380578;28;20200;-72
2021/07/16 12:07:04;;;;;;;0.83;0.70;;;;;;;30.84;32.24;98100.84;8380564;28;20224;-72
2021/07/16 12:11:08;;;;;;;0.73;0.53;;;;;;;31.05;32.43;98099.97;8380641;28;20199;-72
2021/07/16 12:15:12;;;;;;;1.17;0.50;;;;;;;30.70;30.57;98104.44;8380808;28;20233;-73
2021/07/16 12:19:16;;;;;;;2.30;0.60;;;;;;;30.56;30.34;98098.19;8380525;28;20202;-73
2021/07/16 12:23:19;;;;;;;0.73;0.60;;;;;;;30.68;30.47;98096.63;8380295;28;20468;-73
2021/07/16 12:27:22;;;;;;;0.53;0.53;;;;;;;30.84;31.55;98102.69;8379489;28;20221;-73
2021/07/16 12:31:25;;;;;;;0.60;0.60;;;;;;;30.67;30.58;98102.97;8379703;28;20215;-72
2021/07/16 12:35:30;;;;;;;0.93;0.60;;;;;;;30.79;32.04;98097.94;8380041;28;20237;-73
2021/07/16 12:39:32;;;;;;;2.90;0.60;;;;;;;30.81;31.14;98101.25;8380029;28;20213;-73
2021/07/16 12:43:38;;;;;;;1.10;0.50;;;;;;;30.83;30.94;98093.84;8379452;28;20193;-73
2021/07/16 12:47:48;;;;;;;0.50;0.50;;;;;;;30.87;31.04;98100.47;8377058;28;20248;-73
2021/07/16 12:51:52;;;;;;;1.63;0.60;;;;;;;30.71;29.77;98093.56;8379490;28;20199;-72
2021/07/16 12:55:55;;;;;;;0.57;0.57;;;;;;;30.87;29.88;98095.13;8379046;28;20199;-72
2021/07/16 12:59:59;;;;;;;0.93;0.60;;;;;;;30.86;30.89;98104.13;8379262;28;20198;-73
2021/07/16 13:04:12;;;;;;;1.73;0.50;;;;;;;30.83;31.68;98093.84;8385864;28;20515;-71
2021/07/16 13:08:22;;;;;;;1.43;0.60;;;;;;;30.77;30.79;98099.97;8385631;28;20236;-73
2021/07/16 13:12:31;;;;;;;3.27;0.73;;;;;;;30.75;30.28;98096.69;8385851;28;20206;-73
2021/07/16 13:16:34;;;;;;;4.07;1.23;;;;;;;31.03;30.44;98088.66;8385545;28;20333;-72
2021/07/16 13:20:37;;;;;;;1.83;0.60;;;;;;;31.01;30.27;98089.88;8385321;28;20210;-71
2021/07/16 13:24:41;;;;;;;0.60;0.60;;;;;;;31.21;31.32;98087.34;8385272;28;20208;-72
2021/07/16 13:28:46;;;;;;;1.57;0.63;;;;;;;31.09;31.12;98095.06;8384813;28;20225;-73
2021/07/16 13:32:48;;;;;;;0.50;0.50;;;;;;;31.00;30.19;98094.41;8384629;28;20542;-73
2021/07/16 13:36:51;;;;;;;0.73;0.70;;;;;;;30.89;30.92;98093.06;8384636;28;20260;-72
2021/07/16 13:40:55;;;;;;;2.40;0.80;;;;;;;30.82;31.00;98094.03;8384716;28;20207;-73
2021/07/16 13:44:58;;;;;;;1.73;1.00;;;;;;;31.07;31.17;98092.63;8384782;28;20279;-73
2021/07/16 13:49:03;;;;;;;1.57;1.20;;;;;;;31.11;30.58;98107.25;8384353;28;20228;-73
2021/07/16 13:53:06;;;;;;;1.77;0.73;;;;;;;30.83;29.72;98098.38;8384288;28;20201;-73
2021/07/16 13:57:10;;;;;;;0.60;0.60;;;;;;;31.02;30.65;98089.69;8383714;28;20214;-73
2021/07/16 14:01:12;;;;;;;1.93;0.70;;;;;;;31.03;30.58;98083.31;8383635;28;20221;-72
2021/07/16 14:05:16;;;;;;;0.70;0.70;;;;;;;31.03;31.29;98082.50;8383387;28;20222;-72
2021/07/16 14:09:19;;;;;;;2.03;0.80;;;;;;;30.59;30.09;98085.22;8383355;28;20230;-73
2021/07/16 14:13:23;;;;;;;1.33;0.80;;;;;;;30.82;30.57;98083.34;8383295;28;20213;-72
2021/07/16 14:17:26;;;;;;;1.10;0.67;;;;;;;30.67;29.54;98086.13;8383335;28;20205;-72
2021/07/16 14:21:29;;;;;;;1.03;0.70;;;;;;;30.65;30.35;98090.81;8382892;28;20208;-73
2021/07/16 14:25:32;;;;;;;0.93;0.80;;;;;;;30.79;31.40;98088.06;8382844;28;20201;-72
2021/07/16 14:29:37;;;;;;;1.27;0.80;;;;;;;30.52;30.25;98080.84;8382277;28;20239;-73
2021/07/16 14:33:39;;;;;;;1.70;1.00;;;;;;;30.52;30.95;98091.53;8382311;28;20391;-73
2021/07/16 14:37:42;;;;;;;1.27;0.80;;;;;;;30.47;30.36;98088.63;8381590;28;20234;-73
2021/07/16 14:41:45;;;;;;;1.20;0.90;;;;;;;30.27;31.08;98091.09;8381446;28;20203;-72
2021/07/16 14:45:49;;;;;;;1.67;0.90;;;;;;;29.86;32.75;98089.03;8378999;28;20214;-73
2021/07/16 14:49:52;;;;;;;2.63;0.90;;;;;;;29.39;32.25;98078.56;8381119;28;20406;-72
2021/07/16 14:53:57;;;;;;;0.97;0.70;;;;;;;29.52;32.47;98080.59;8348750;28;20200;-72
2021/07/16 14:58:00;;;;;;;1.80;0.80;;;;;;;29.69;32.81;98083.06;8348387;28;20212;-72
2021/07/16 15:02:04;;;;;;;2.50;0.90;;;;;;;29.11;32.17;98080.22;8348615;28;20204;-71
2021/07/16 15:06:11;;;;;;;1.00;1.00;;;;;;;29.70;32.95;98080.22;8379623;28;20234;-73
2021/07/16 15:10:14;;;;;;;1.57;0.77;;;;;;;29.39;34.10;98077.75;8380391;28;20228;-74
2021/07/16 15:14:17;;;;;;;1.47;1.10;;;;;;;29.30;32.53;98073.53;8375301;28;20203;-72
2021/07/16 15:18:21;;;;;;;1.47;0.90;;;;;;;29.30;33.35;98073.53;8378930;28;20204;-72
2021/07/16 15:22:24;;;;;;;2.57;0.93;;;;;;;29.39;33.45;98073.25;8378774;28;20206;-73
2021/07/16 15:26:27;;;;;;;1.30;1.17;;;;;;;29.35;33.79;98074.63;8379305;28;20478;-72
2021/07/16 15:30:30;;;;;;;2.33;1.10;;;;;;;29.55;31.73;98056.22;8373859;28;20437;-72
2021/07/16 15:34:34;;;;;;;11.60;4.30;;;;;;;29.17;33.25;98067.03;8381123;28;20334;-73
2021/07/16 15:38:37;;;;;;;59.37;15.23;;;;;;;29.30;33.48;98065.53;8381426;28;20240;-73
2021/07/16 15:42:41;;;;;;;11.00;2.53;;;;;;;29.21;32.97;98073.63;8407553;28;20495;-73
2021/07/16 15:46:43;;;;;;;2.10;0.93;;;;;;;29.08;32.44;98065.44;8404466;28;20210;-73
2021/07/16 15:50:48;;;;;;;3.03;1.20;;;;;;;29.16;34.08;98070.69;8380342;28;20542;-72
2021/07/16 15:54:51;;;;;;;4.37;1.10;;;;;;;29.15;33.97;98062.88;8365093;28;20192;-73
2021/07/16 15:58:53;;;;;;;0.90;0.80;;;;;;;29.16;33.63;98053.88;8350243;28;20203;-73
2021/07/16 16:02:56;;;;;;;1.57;0.90;;;;;;;28.81;33.59;98064.22;8369346;28;20522;-72
2021/07/16 16:07:01;;;;;;;3.73;0.80;;;;;;;28.83;34.55;98067.53;8380296;28;20230;-72
2021/07/16 16:11:05;;;;;;;1.10;1.00;;;;;;;28.56;34.16;98079.59;8379890;28;20343;-72
2021/07/16 16:15:09;;;;;;;1.23;1.00;;;;;;;28.61;33.40;98074.56;8379373;28;20221;-72
2021/07/16 16:19:12;;;;;;;1.27;1.00;;;;;;;28.70;34.33;98075.31;8379181;28;20214;-72
2021/07/16 16:23:16;;;;;;;1.67;1.20;;;;;;;28.78;34.69;98070.72;8379140;28;20209;-73
2021/07/16 16:27:19;;;;;;;3.13;1.00;;;;;;;28.69;34.25;98066.47;8374153;28;20205;-73
2021/07/16 16:31:24;;;;;;;3.00;1.10;;;;;;;28.34;35.67;98087.41;8370449;28;20205;-74
2021/07/16 16:35:27;;;;;;;1.40;1.30;;;;;;;28.01;35.87;98079.66;8376321;28;20434;-70
2021/07/16 16:39:31;;;;;;;2.93;1.10;;;;;;;27.88;35.77;98092.69;8385478;28;20206;-70
2021/07/16 16:43:34;;;;;;;3.17;1.27;;;;;;;27.72;37.75;98095.41;8385563;28;20205;-71
2021/07/16 16:47:37;;;;;;;5.30;1.80;;;;;;;26.96;42.81;98106.47;8385065;28;20249;-71
2021/07/16 16:51:40;;;;;;;10.47;2.10;;;;;;;26.51;46.59;98115.75;8384714;28;20206;-71
2021/07/16 16:55:44;;;;;;;9.73;2.50;;;;;;;26.05;50.13;98118.88;8384976;28;20209;-71
2021/07/16 16:59:47;;;;;;;6.47;2.23;;;;;;;25.78;51.36;98121.72;8384966;28;20204;-71
2021/07/16 17:03:50;;;;;;;4.13;2.17;;;;;;;25.62;51.35;98125.16;8385729;28;20491;-68
2021/07/16 17:07:53;;;;;;;3.33;2.10;;;;;;;25.33;51.10;98135.13;8384594;28;20386;-69
2021/07/16 17:11:57;;;;;;;2.40;2.13;;;;;;;25.34;50.76;98128.84;8384382;28;20208;-69
2021/07/16 17:16:01;;;;;;;3.17;2.10;;;;;;;25.47;50.01;98136.34;8384438;28;20228;-68
2021/07/16 17:20:07;;;;;;;2.20;2.00;;;;;;;25.48;50.50;98138.03;8384263;28;20205;-68
2021/07/16 17:24:10;;;;;;;2.43;2.20;;;;;;;25.33;51.15;98143.09;8384283;28;20453;-68
2021/07/16 17:28:14;;;;;;;4.07;2.87;;;;;;;25.34;50.72;98138.59;8383697;28;20240;-68
2021/07/16 17:32:17;;;;;;;3.73;2.37;;;;;;;25.29;50.96;98157.66;8383711;28;20217;-68
2021/07/16 17:36:19;;;;;;;2.80;2.53;;;;;;;25.17;51.75;98153.56;8383508;28;20235;-68
2021/07/16 17:40:24;;;;;;;3.00;2.70;;;;;;;25.10;52.65;98145.41;8383485;28;20209;-68
2021/07/16 17:44:28;;;;;;;5.33;2.90;;;;;;;25.07;53.34;98158.94;8383579;28;20206;-68
2021/07/16 17:48:31;;;;;;;3.70;3.20;;;;;;;24.88;54.54;98153.84;8382603;28;20548;-68
2021/07/16 17:52:34;;;;;;;5.30;3.80;;;;;;;24.82;54.65;98162.44;8383032;28;20219;-68
2021/07/16 17:56:37;;;;;;;7.00;3.40;;;;;;;24.82;54.64;98160.59;8383040;28;20202;-68
2021/07/16 18:00:41;;;;;;;8.37;4.70;;;;;;;24.83;54.18;98172.03;8382992;28;20212;-68
2021/07/16 18:04:44;;;;;;;7.20;4.27;;;;;;;24.74;54.77;98169.31;8383597;28;20330;-67
2021/07/16 18:08:48;;;;;;;4.37;3.40;;;;;;;24.66;54.47;98160.50;8382875;28;20232;-67
2021/07/16 18:12:54;;;;;;;5.03;3.40;;;;;;;24.65;54.73;98158.81;8383186;28;20233;-67
2021/07/16 18:16:58;;;;;;;8.17;3.97;;;;;;;24.55;54.71;98162.38;8382829;28;20291;-67
2021/07/16 18:21:01;;;;;;;4.50;3.50;;;;;;;24.59;54.73;98169.00;8382400;28;20200;-67
2021/07/16 18:25:05;;;;;;;7.17;3.37;;;;;;;24.50;54.41;98174.38;8382609;28;20208;-65
2021/07/16 18:29:21;;;;;;;6.60;3.00;;;;;;;24.45;54.33;98179.28;8382237;28;20227;-65
2021/07/16 18:33:26;;;;;;;4.33;3.50;;;;;;;24.37;54.90;98188.81;8381873;28;20313;-65
2021/07/16 18:37:28;;;;;;;5.80;3.30;;;;;;;24.25;55.72;98189.16;8382699;28;20236;-65
2021/07/16 18:41:31;;;;;;;4.77;3.43;;;;;;;24.20;55.43;98189.63;8382844;28;20204;-64
2021/07/16 18:45:35;;;;;;;6.10;3.43;;;;;;;24.15;55.67;98187.41;8381744;28;20199;-65
2021/07/16 18:49:39;;;;;;;8.83;3.50;;;;;;;24.16;55.92;98193.53;8381541;28;20530;-72
2021/07/16 18:53:42;;;;;;;7.73;3.67;;;;;;;24.08;56.22;98188.97;8381599;28;20218;-72
2021/07/16 18:57:45;;;;;;;6.23;3.30;;;;;;;24.09;55.81;98200.41;8380372;28;20204;-71
2021/07/16 19:01:48;;;;;;;8.73;3.50;;;;;;;24.02;55.71;98199.34;8379762;28;20502;-70
2021/07/16 19:05:52;;;;;;;4.67;3.53;;;;;;;24.02;56.10;98204.63;8380174;28;20219;-71
2021/07/16 19:09:55;;;;;;;8.30;3.57;;;;;;;24.00;55.58;98199.47;8380387;28;20239;-71